sensor_id;sensor_type;location;lat;lon;timestamp;P1;durP1;ratioP1;P2;durP2;ratioP2
71806;SDS011;59655;42.590;23.364;2023-07-13T00:01:29;7.55;;;5.05;;
71806;SDS011;59655;42.590;23.364;2023-07-13T00:03:55;8.23;;;5.57;;
71806;SDS011;59655;42.590;23.364;2023-07-13T00:06:21;10.80;;;5.32;;
71806;SDS011;59655;42.590;23.364;2023-07-13T00:08:47;12.43;;;5.38;;
71806;SDS011;59655;42.590;23.364;2023-07-13T00:11:14;10.32;;;5.47;;
71806;SDS011;59655;42.590;23.364;2023-07-13T00:13:41;8.32;;;5.00;;
71806;SDS011;59655;42.590;23.364;2023-07-13T00:16:08;6.50;;;4.65;;
71806;SDS011;59655;42.590;23.364;2023-07-13T00:18:35;9.40;;;5.60;;
71806;SDS011;59655;42.590;23.364;2023-07-13T00:21:00;9.48;;;5.65;;
71806;SDS011;59655;42.590;23.364;2023-07-13T00:23:34;8.73;;;5.28;;
71806;SDS011;59655;42.590;23.364;2023-07-13T00:26:01;8.07;;;4.93;;
71806;SDS011;59655;42.590;23.364;2023-07-13T00:28:28;7.85;;;5.32;;
71806;SDS011;59655;42.590;23.364;2023-07-13T00:30:53;10.25;;;5.03;;
71806;SDS011;59655;42.590;23.364;2023-07-13T00:33:19;9.35;;;5.13;;
71806;SDS011;59655;42.590;23.364;2023-07-13T00:35:44;11.07;;;5.05;;
71806;SDS011;59655;42.590;23.364;2023-07-13T00:38:10;10.60;;;5.53;;
71806;SDS011;59655;42.590;23.364;2023-07-13T00:40:35;9.57;;;5.60;;
71806;SDS011;59655;42.590;23.364;2023-07-13T00:43:01;11.60;;;5.68;;
71806;SDS011;59655;42.590;23.364;2023-07-13T00:47:54;13.68;;;6.15;;
71806;SDS011;59655;42.590;23.364;2023-07-13T00:50:22;11.32;;;6.32;;
71806;SDS011;59655;42.590;23.364;2023-07-13T00:52:50;9.68;;;5.50;;
71806;SDS011;59655;42.590;23.364;2023-07-13T00:55:18;10.50;;;6.25;;
71806;SDS011;59655;42.590;23.364;2023-07-13T00:57:46;7.60;;;5.15;;
71806;SDS011;59655;42.590;23.364;2023-07-13T01:00:12;11.23;;;5.78;;
71806;SDS011;59655;42.590;23.364;2023-07-13T01:02:39;9.82;;;5.80;;
71806;SDS011;59655;42.590;23.364;2023-07-13T01:05:10;9.45;;;5.30;;
71806;SDS011;59655;42.590;23.364;2023-07-13T01:07:39;9.13;;;5.90;;
71806;SDS011;59655;42.590;23.364;2023-07-13T01:10:06;9.05;;;5.90;;
71806;SDS011;59655;42.590;23.364;2023-07-13T01:12:32;9.43;;;5.80;;
71806;SDS011;59655;42.590;23.364;2023-07-13T01:14:58;10.02;;;6.25;;
71806;SDS011;59655;42.590;23.364;2023-07-13T01:17:25;11.63;;;5.95;;
71806;SDS011;59655;42.590;23.364;2023-07-13T01:19:51;11.15;;;6.03;;
71806;SDS011;59655;42.590;23.364;2023-07-13T01:22:17;11.00;;;6.30;;
71806;SDS011;59655;42.590;23.364;2023-07-13T01:24:45;11.45;;;6.82;;
71806;SDS011;59655;42.590;23.364;2023-07-13T01:27:13;9.10;;;6.40;;
71806;SDS011;59655;42.590;23.364;2023-07-13T01:29:41;11.18;;;7.07;;
71806;SDS011;59655;42.590;23.364;2023-07-13T01:32:09;12.57;;;6.72;;
71806;SDS011;59655;42.590;23.364;2023-07-13T01:34:37;13.15;;;6.03;;
71806;SDS011;59655;42.590;23.364;2023-07-13T01:37:03;9.57;;;5.90;;
71806;SDS011;59655;42.590;23.364;2023-07-13T01:39:32;10.60;;;5.95;;
71806;SDS011;59655;42.590;23.364;2023-07-13T01:41:58;9.80;;;5.88;;
71806;SDS011;59655;42.590;23.364;2023-07-13T01:44:24;13.00;;;5.57;;
71806;SDS011;59655;42.590;23.364;2023-07-13T01:46:49;11.57;;;6.28;;
71806;SDS011;59655;42.590;23.364;2023-07-13T01:49:15;9.45;;;6.30;;
71806;SDS011;59655;42.590;23.364;2023-07-13T01:51:40;9.23;;;5.93;;
71806;SDS011;59655;42.590;23.364;2023-07-13T01:54:05;8.63;;;6.38;;
71806;SDS011;59655;42.590;23.364;2023-07-13T01:56:31;11.52;;;6.47;;
71806;SDS011;59655;42.590;23.364;2023-07-13T01:58:56;11.43;;;6.38;;
71806;SDS011;59655;42.590;23.364;2023-07-13T02:01:22;9.00;;;6.45;;
71806;SDS011;59655;42.590;23.364;2023-07-13T02:03:47;10.88;;;6.18;;
71806;SDS011;59655;42.590;23.364;2023-07-13T02:06:12;9.13;;;6.30;;
71806;SDS011;59655;42.590;23.364;2023-07-13T02:08:40;9.32;;;6.13;;
71806;SDS011;59655;42.590;23.364;2023-07-13T02:11:07;11.75;;;5.88;;
71806;SDS011;59655;42.590;23.364;2023-07-13T02:13:33;9.75;;;5.80;;
71806;SDS011;59655;42.590;23.364;2023-07-13T02:15:58;12.30;;;5.88;;
71806;SDS011;59655;42.590;23.364;2023-07-13T02:18:23;10.57;;;6.00;;
71806;SDS011;59655;42.590;23.364;2023-07-13T02:20:49;9.48;;;5.93;;
71806;SDS011;59655;42.590;23.364;2023-07-13T02:23:14;10.82;;;6.18;;
71806;SDS011;59655;42.590;23.364;2023-07-13T02:25:40;10.18;;;5.78;;
71806;SDS011;59655;42.590;23.364;2023-07-13T02:28:06;9.32;;;5.88;;
71806;SDS011;59655;42.590;23.364;2023-07-13T02:30:31;12.20;;;6.15;;
71806;SDS011;59655;42.590;23.364;2023-07-13T02:32:57;10.38;;;6.00;;
71806;SDS011;59655;42.590;23.364;2023-07-13T02:35:22;8.80;;;5.78;;
71806;SDS011;59655;42.590;23.364;2023-07-13T02:37:48;11.23;;;6.40;;
71806;SDS011;59655;42.590;23.364;2023-07-13T02:40:14;11.85;;;6.18;;
71806;SDS011;59655;42.590;23.364;2023-07-13T02:42:40;8.73;;;5.68;;
71806;SDS011;59655;42.590;23.364;2023-07-13T02:45:06;10.02;;;5.90;;
71806;SDS011;59655;42.590;23.364;2023-07-13T02:47:33;11.70;;;5.97;;
71806;SDS011;59655;42.590;23.364;2023-07-13T02:49:59;10.10;;;6.10;;
71806;SDS011;59655;42.590;23.364;2023-07-13T02:52:25;10.95;;;5.85;;
71806;SDS011;59655;42.590;23.364;2023-07-13T02:54:50;9.68;;;5.85;;
71806;SDS011;59655;42.590;23.364;2023-07-13T02:57:16;8.77;;;5.70;;
71806;SDS011;59655;42.590;23.364;2023-07-13T02:59:41;9.10;;;5.90;;
71806;SDS011;59655;42.590;23.364;2023-07-13T03:02:07;12.20;;;6.30;;
71806;SDS011;59655;42.590;23.364;2023-07-13T03:04:34;9.40;;;5.95;;
71806;SDS011;59655;42.590;23.364;2023-07-13T03:07:00;12.70;;;6.28;;
71806;SDS011;59655;42.590;23.364;2023-07-13T03:09:26;9.73;;;5.82;;
71806;SDS011;59655;42.590;23.364;2023-07-13T03:11:53;10.20;;;6.45;;
71806;SDS011;59655;42.590;23.364;2023-07-13T03:19:10;10.80;;;6.30;;
71806;SDS011;59655;42.590;23.364;2023-07-13T03:21:35;10.43;;;6.50;;
71806;SDS011;59655;42.590;23.364;2023-07-13T03:24:01;11.93;;;6.63;;
71806;SDS011;59655;42.590;23.364;2023-07-13T03:26:26;12.23;;;7.05;;
71806;SDS011;59655;42.590;23.364;2023-07-13T03:28:51;11.05;;;6.22;;
71806;SDS011;59655;42.590;23.364;2023-07-13T03:31:21;14.38;;;6.38;;
71806;SDS011;59655;42.590;23.364;2023-07-13T03:33:50;12.48;;;6.50;;
71806;SDS011;59655;42.590;23.364;2023-07-13T03:36:16;12.70;;;6.13;;
71806;SDS011;59655;42.590;23.364;2023-07-13T03:38:46;10.63;;;5.85;;
71806;SDS011;59655;42.590;23.364;2023-07-13T03:41:13;11.70;;;6.28;;
71806;SDS011;59655;42.590;23.364;2023-07-13T03:43:39;11.35;;;6.32;;
71806;SDS011;59655;42.590;23.364;2023-07-13T03:46:05;9.32;;;6.57;;
71806;SDS011;59655;42.590;23.364;2023-07-13T03:48:30;10.30;;;5.97;;
71806;SDS011;59655;42.590;23.364;2023-07-13T03:50:56;14.95;;;7.28;;
71806;SDS011;59655;42.590;23.364;2023-07-13T03:53:21;15.45;;;7.43;;
71806;SDS011;59655;42.590;23.364;2023-07-13T03:55:46;13.68;;;7.60;;
71806;SDS011;59655;42.590;23.364;2023-07-13T03:58:32;11.95;;;7.28;;
71806;SDS011;59655;42.590;23.364;2023-07-13T04:01:02;13.05;;;6.60;;
71806;SDS011;59655;42.590;23.364;2023-07-13T04:03:30;14.85;;;7.50;;
71806;SDS011;59655;42.590;23.364;2023-07-13T04:05:58;11.60;;;6.93;;
71806;SDS011;59655;42.590;23.364;2023-07-13T04:08:28;15.50;;;8.18;;
71806;SDS011;59655;42.590;23.364;2023-07-13T04:10:56;14.20;;;7.70;;
71806;SDS011;59655;42.590;23.364;2023-07-13T04:13:22;12.52;;;7.57;;
71806;SDS011;59655;42.590;23.364;2023-07-13T04:15:47;16.27;;;7.53;;
71806;SDS011;59655;42.590;23.364;2023-07-13T04:18:13;13.48;;;6.60;;
71806;SDS011;59655;42.590;23.364;2023-07-13T04:20:39;12.05;;;6.45;;
71806;SDS011;59655;42.590;23.364;2023-07-13T04:23:04;19.15;;;11.68;;
71806;SDS011;59655;42.590;23.364;2023-07-13T04:25:29;24.52;;;15.85;;
71806;SDS011;59655;42.590;23.364;2023-07-13T04:27:55;25.85;;;12.88;;
71806;SDS011;59655;42.590;23.364;2023-07-13T04:30:21;14.05;;;8.65;;
71806;SDS011;59655;42.590;23.364;2023-07-13T04:32:47;12.48;;;6.72;;
71806;SDS011;59655;42.590;23.364;2023-07-13T04:35:12;12.10;;;7.55;;
71806;SDS011;59655;42.590;23.364;2023-07-13T04:37:39;12.20;;;7.28;;
71806;SDS011;59655;42.590;23.364;2023-07-13T04:40:05;13.13;;;7.63;;
71806;SDS011;59655;42.590;23.364;2023-07-13T04:42:31;13.43;;;6.93;;
71806;SDS011;59655;42.590;23.364;2023-07-13T04:44:57;12.77;;;7.15;;
71806;SDS011;59655;42.590;23.364;2023-07-13T04:47:22;12.63;;;7.22;;
71806;SDS011;59655;42.590;23.364;2023-07-13T04:49:48;13.93;;;7.50;;
71806;SDS011;59655;42.590;23.364;2023-07-13T04:52:13;14.10;;;8.20;;
71806;SDS011;59655;42.590;23.364;2023-07-13T04:54:39;10.40;;;7.00;;
71806;SDS011;59655;42.590;23.364;2023-07-13T04:57:04;13.05;;;7.78;;
71806;SDS011;59655;42.590;23.364;2023-07-13T04:59:33;12.05;;;7.45;;
71806;SDS011;59655;42.590;23.364;2023-07-13T05:01:59;13.88;;;7.10;;
71806;SDS011;59655;42.590;23.364;2023-07-13T05:04:26;14.52;;;7.50;;
71806;SDS011;59655;42.590;23.364;2023-07-13T05:06:52;12.93;;;7.10;;
71806;SDS011;59655;42.590;23.364;2023-07-13T05:09:19;12.68;;;7.82;;
71806;SDS011;59655;42.590;23.364;2023-07-13T05:11:44;14.40;;;7.95;;
71806;SDS011;59655;42.590;23.364;2023-07-13T05:14:09;11.52;;;7.30;;
71806;SDS011;59655;42.590;23.364;2023-07-13T05:16:35;11.40;;;7.85;;
71806;SDS011;59655;42.590;23.364;2023-07-13T05:19:01;16.65;;;7.88;;
71806;SDS011;59655;42.590;23.364;2023-07-13T05:21:27;13.52;;;8.52;;
71806;SDS011;59655;42.590;23.364;2023-07-13T05:23:53;16.75;;;8.13;;
71806;SDS011;59655;42.590;23.364;2023-07-13T05:26:18;17.00;;;8.13;;
71806;SDS011;59655;42.590;23.364;2023-07-13T05:28:46;12.48;;;7.75;;
71806;SDS011;59655;42.590;23.364;2023-07-13T05:31:11;15.20;;;7.57;;
71806;SDS011;59655;42.590;23.364;2023-07-13T05:33:37;18.73;;;8.20;;
71806;SDS011;59655;42.590;23.364;2023-07-13T05:36:03;13.52;;;8.15;;
71806;SDS011;59655;42.590;23.364;2023-07-13T05:38:28;15.13;;;7.82;;
71806;SDS011;59655;42.590;23.364;2023-07-13T05:40:54;18.73;;;8.40;;
71806;SDS011;59655;42.590;23.364;2023-07-13T05:43:21;18.50;;;8.00;;
71806;SDS011;59655;42.590;23.364;2023-07-13T05:45:46;15.68;;;8.20;;
71806;SDS011;59655;42.590;23.364;2023-07-13T05:48:12;11.88;;;7.18;;
71806;SDS011;59655;42.590;23.364;2023-07-13T05:50:37;15.88;;;8.00;;
71806;SDS011;59655;42.590;23.364;2023-07-13T05:53:03;12.05;;;8.05;;
71806;SDS011;59655;42.590;23.364;2023-07-13T05:55:30;10.52;;;8.55;;
71806;SDS011;59655;42.590;23.364;2023-07-13T05:57:55;11.52;;;7.90;;
71806;SDS011;59655;42.590;23.364;2023-07-13T06:00:23;13.60;;;7.82;;
71806;SDS011;59655;42.590;23.364;2023-07-13T06:02:49;12.25;;;7.82;;
71806;SDS011;59655;42.590;23.364;2023-07-13T06:05:14;14.52;;;8.57;;
71806;SDS011;59655;42.590;23.364;2023-07-13T06:07:40;14.18;;;8.75;;
71806;SDS011;59655;42.590;23.364;2023-07-13T06:10:06;15.35;;;8.80;;
71806;SDS011;59655;42.590;23.364;2023-07-13T06:12:32;15.75;;;7.97;;
71806;SDS011;59655;42.590;23.364;2023-07-13T06:14:57;13.20;;;7.78;;
71806;SDS011;59655;42.590;23.364;2023-07-13T06:17:23;15.63;;;8.52;;
71806;SDS011;59655;42.590;23.364;2023-07-13T06:19:48;16.98;;;9.35;;
71806;SDS011;59655;42.590;23.364;2023-07-13T06:22:13;17.27;;;8.20;;
71806;SDS011;59655;42.590;23.364;2023-07-13T06:24:39;12.10;;;8.52;;
71806;SDS011;59655;42.590;23.364;2023-07-13T06:27:04;17.40;;;8.65;;
71806;SDS011;59655;42.590;23.364;2023-07-13T06:29:30;14.25;;;8.90;;
71806;SDS011;59655;42.590;23.364;2023-07-13T06:31:56;13.35;;;8.65;;
71806;SDS011;59655;42.590;23.364;2023-07-13T06:34:22;15.02;;;8.57;;
71806;SDS011;59655;42.590;23.364;2023-07-13T06:36:47;12.60;;;8.50;;
71806;SDS011;59655;42.590;23.364;2023-07-13T06:39:12;12.00;;;7.45;;
71806;SDS011;59655;42.590;23.364;2023-07-13T06:41:38;14.70;;;7.78;;
71806;SDS011;59655;42.590;23.364;2023-07-13T06:44:04;13.10;;;7.75;;
71806;SDS011;59655;42.590;23.364;2023-07-13T06:46:29;11.43;;;8.65;;
71806;SDS011;59655;42.590;23.364;2023-07-13T06:48:55;16.17;;;9.40;;
71806;SDS011;59655;42.590;23.364;2023-07-13T06:51:21;14.20;;;7.68;;
71806;SDS011;59655;42.590;23.364;2023-07-13T06:53:46;12.90;;;9.23;;
71806;SDS011;59655;42.590;23.364;2023-07-13T06:56:12;14.30;;;10.02;;
71806;SDS011;59655;42.590;23.364;2023-07-13T06:58:38;14.00;;;9.80;;
71806;SDS011;59655;42.590;23.364;2023-07-13T07:01:04;16.33;;;9.98;;
71806;SDS011;59655;42.590;23.364;2023-07-13T07:03:29;12.60;;;9.25;;
71806;SDS011;59655;42.590;23.364;2023-07-13T07:06:16;13.93;;;9.75;;
71806;SDS011;59655;42.590;23.364;2023-07-13T07:08:43;14.30;;;10.25;;
71806;SDS011;59655;42.590;23.364;2023-07-13T07:11:12;15.77;;;8.88;;
71806;SDS011;59655;42.590;23.364;2023-07-13T07:13:38;13.32;;;8.25;;
71806;SDS011;59655;42.590;23.364;2023-07-13T07:16:04;12.70;;;9.57;;
71806;SDS011;59655;42.590;23.364;2023-07-13T07:18:30;14.88;;;9.38;;
71806;SDS011;59655;42.590;23.364;2023-07-13T07:20:56;14.85;;;9.95;;
71806;SDS011;59655;42.590;23.364;2023-07-13T07:23:21;14.88;;;10.38;;
71806;SDS011;59655;42.590;23.364;2023-07-13T07:25:47;16.08;;;10.35;;
71806;SDS011;59655;42.590;23.364;2023-07-13T07:28:14;18.27;;;10.23;;
71806;SDS011;59655;42.590;23.364;2023-07-13T07:30:43;17.67;;;9.90;;
71806;SDS011;59655;42.590;23.364;2023-07-13T07:33:09;14.57;;;10.02;;
71806;SDS011;59655;42.590;23.364;2023-07-13T07:35:34;16.77;;;9.73;;
71806;SDS011;59655;42.590;23.364;2023-07-13T07:37:59;14.15;;;9.85;;
71806;SDS011;59655;42.590;23.364;2023-07-13T07:40:25;15.27;;;8.75;;
71806;SDS011;59655;42.590;23.364;2023-07-13T07:42:51;14.63;;;10.25;;
71806;SDS011;59655;42.590;23.364;2023-07-13T07:45:16;14.02;;;10.02;;
71806;SDS011;59655;42.590;23.364;2023-07-13T07:47:42;12.07;;;9.63;;
71806;SDS011;59655;42.590;23.364;2023-07-13T07:50:07;14.80;;;10.20;;
71806;SDS011;59655;42.590;23.364;2023-07-13T07:52:33;14.80;;;9.18;;
71806;SDS011;59655;42.590;23.364;2023-07-13T07:54:59;14.95;;;9.57;;
71806;SDS011;59655;42.590;23.364;2023-07-13T07:57:24;15.90;;;10.02;;
71806;SDS011;59655;42.590;23.364;2023-07-13T07:59:50;14.60;;;9.98;;
71806;SDS011;59655;42.590;23.364;2023-07-13T08:02:15;16.60;;;10.35;;
71806;SDS011;59655;42.590;23.364;2023-07-13T08:04:40;13.73;;;9.82;;
71806;SDS011;59655;42.590;23.364;2023-07-13T08:07:07;16.55;;;9.85;;
71806;SDS011;59655;42.590;23.364;2023-07-13T08:09:33;18.15;;;10.45;;
71806;SDS011;59655;42.590;23.364;2023-07-13T08:11:58;16.80;;;9.85;;
71806;SDS011;59655;42.590;23.364;2023-07-13T08:14:24;13.63;;;9.77;;
71806;SDS011;59655;42.590;23.364;2023-07-13T08:16:49;14.55;;;10.07;;
71806;SDS011;59655;42.590;23.364;2023-07-13T08:19:15;16.92;;;10.27;;
71806;SDS011;59655;42.590;23.364;2023-07-13T08:21:40;13.68;;;8.68;;
71806;SDS011;59655;42.590;23.364;2023-07-13T08:24:07;14.13;;;9.77;;
71806;SDS011;59655;42.590;23.364;2023-07-13T08:26:33;15.88;;;9.32;;
71806;SDS011;59655;42.590;23.364;2023-07-13T08:28:58;19.75;;;9.68;;
71806;SDS011;59655;42.590;23.364;2023-07-13T08:31:23;16.85;;;8.90;;
71806;SDS011;59655;42.590;23.364;2023-07-13T08:33:49;16.17;;;9.23;;
71806;SDS011;59655;42.590;23.364;2023-07-13T08:36:14;16.00;;;9.38;;
71806;SDS011;59655;42.590;23.364;2023-07-13T08:38:41;14.25;;;8.40;;
71806;SDS011;59655;42.590;23.364;2023-07-13T08:41:13;16.92;;;10.10;;
71806;SDS011;59655;42.590;23.364;2023-07-13T08:43:42;17.30;;;11.95;;
71806;SDS011;59655;42.590;23.364;2023-07-13T08:46:26;14.90;;;10.52;;
71806;SDS011;59655;42.590;23.364;2023-07-13T08:49:04;16.23;;;11.80;;
71806;SDS011;59655;42.590;23.364;2023-07-13T08:51:43;16.95;;;11.50;;
71806;SDS011;59655;42.590;23.364;2023-07-13T08:54:22;15.07;;;11.15;;
71806;SDS011;59655;42.590;23.364;2023-07-13T08:56:52;14.82;;;11.75;;
71806;SDS011;59655;42.590;23.364;2023-07-13T08:59:19;17.13;;;11.18;;
71806;SDS011;59655;42.590;23.364;2023-07-13T09:04:26;33.70;;;11.98;;
71806;SDS011;59655;42.590;23.364;2023-07-13T09:13:06;17.27;;;11.48;;
71806;SDS011;59655;42.590;23.364;2023-07-13T09:15:17;16.90;;;12.30;;
71806;SDS011;59655;42.590;23.364;2023-07-13T09:17:50;18.65;;;12.40;;
71806;SDS011;59655;42.590;23.364;2023-07-13T09:22:45;17.45;;;11.38;;
71806;SDS011;59655;42.590;23.364;2023-07-13T09:25:30;18.45;;;11.68;;
71806;SDS011;59655;42.590;23.364;2023-07-13T09:28:01;18.23;;;10.90;;
71806;SDS011;59655;42.590;23.364;2023-07-13T09:33:28;25.40;;;11.10;;
71806;SDS011;59655;42.590;23.364;2023-07-13T09:35:58;18.90;;;11.23;;
71806;SDS011;59655;42.590;23.364;2023-07-13T09:38:24;22.05;;;11.13;;
71806;SDS011;59655;42.590;23.364;2023-07-13T09:44:00;16.02;;;10.85;;
71806;SDS011;59655;42.590;23.364;2023-07-13T09:46:27;23.65;;;12.18;;
71806;SDS011;59655;42.590;23.364;2023-07-13T09:48:52;18.90;;;12.35;;
71806;SDS011;59655;42.590;23.364;2023-07-13T09:51:18;23.52;;;11.95;;
71806;SDS011;59655;42.590;23.364;2023-07-13T09:53:43;19.25;;;12.45;;
71806;SDS011;59655;42.590;23.364;2023-07-13T09:56:19;20.42;;;12.45;;
71806;SDS011;59655;42.590;23.364;2023-07-13T09:58:46;21.13;;;12.30;;
71806;SDS011;59655;42.590;23.364;2023-07-13T10:01:11;18.88;;;11.95;;
71806;SDS011;59655;42.590;23.364;2023-07-13T10:03:37;19.92;;;12.27;;
71806;SDS011;59655;42.590;23.364;2023-07-13T10:06:19;22.33;;;12.07;;
71806;SDS011;59655;42.590;23.364;2023-07-13T10:08:47;22.23;;;11.80;;
71806;SDS011;59655;42.590;23.364;2023-07-13T10:11:17;16.67;;;10.95;;
71806;SDS011;59655;42.590;23.364;2023-07-13T10:16:20;21.27;;;11.25;;
71806;SDS011;59655;42.590;23.364;2023-07-13T10:18:55;22.38;;;12.18;;
71806;SDS011;59655;42.590;23.364;2023-07-13T10:21:26;20.95;;;11.70;;
71806;SDS011;59655;42.590;23.364;2023-07-13T10:24:13;19.10;;;11.95;;
71806;SDS011;59655;42.590;23.364;2023-07-13T10:26:48;22.60;;;13.32;;
71806;SDS011;59655;42.590;23.364;2023-07-13T10:29:21;20.77;;;12.60;;
71806;SDS011;59655;42.590;23.364;2023-07-13T10:31:49;18.45;;;11.48;;
71806;SDS011;59655;42.590;23.364;2023-07-13T10:34:15;23.70;;;11.82;;
71806;SDS011;59655;42.590;23.364;2023-07-13T10:36:43;17.58;;;11.73;;
71806;SDS011;59655;42.590;23.364;2023-07-13T10:39:13;22.10;;;12.65;;
71806;SDS011;59655;42.590;23.364;2023-07-13T10:41:44;19.15;;;11.63;;
71806;SDS011;59655;42.590;23.364;2023-07-13T10:44:18;19.88;;;12.15;;
71806;SDS011;59655;42.590;23.364;2023-07-13T10:46:59;19.23;;;12.80;;
71806;SDS011;59655;42.590;23.364;2023-07-13T10:49:28;22.35;;;13.02;;
71806;SDS011;59655;42.590;23.364;2023-07-13T10:51:56;20.90;;;11.95;;
71806;SDS011;59655;42.590;23.364;2023-07-13T10:57:12;23.23;;;12.35;;
71806;SDS011;59655;42.590;23.364;2023-07-13T10:59:41;24.83;;;13.05;;
71806;SDS011;59655;42.590;23.364;2023-07-13T11:02:31;19.95;;;12.90;;
71806;SDS011;59655;42.590;23.364;2023-07-13T11:09:54;18.45;;;11.65;;
71806;SDS011;59655;42.590;23.364;2023-07-13T11:17:33;20.23;;;12.13;;
71806;SDS011;59655;42.590;23.364;2023-07-13T11:22:42;19.63;;;11.45;;
71806;SDS011;59655;42.590;23.364;2023-07-13T11:35:38;20.65;;;11.48;;
71806;SDS011;59655;42.590;23.364;2023-07-13T11:38:14;23.55;;;12.82;;
71806;SDS011;59655;42.590;23.364;2023-07-13T11:40:43;17.65;;;11.40;;
71806;SDS011;59655;42.590;23.364;2023-07-13T11:43:11;17.40;;;11.57;;
71806;SDS011;59655;42.590;23.364;2023-07-13T11:45:38;19.63;;;11.40;;
71806;SDS011;59655;42.590;23.364;2023-07-13T11:48:04;22.10;;;10.77;;
71806;SDS011;59655;42.590;23.364;2023-07-13T11:50:29;21.80;;;11.40;;
71806;SDS011;59655;42.590;23.364;2023-07-13T11:52:57;26.90;;;12.05;;
71806;SDS011;59655;42.590;23.364;2023-07-13T11:55:24;21.83;;;11.95;;
71806;SDS011;59655;42.590;23.364;2023-07-13T12:00:27;18.10;;;10.90;;
71806;SDS011;59655;42.590;23.364;2023-07-13T12:02:55;21.25;;;12.02;;
71806;SDS011;59655;42.590;23.364;2023-07-13T12:05:22;20.90;;;11.30;;
71806;SDS011;59655;42.590;23.364;2023-07-13T12:07:48;24.80;;;10.70;;
71806;SDS011;59655;42.590;23.364;2023-07-13T12:12:51;20.75;;;11.35;;
71806;SDS011;59655;42.590;23.364;2023-07-13T12:15:19;27.30;;;11.57;;
71806;SDS011;59655;42.590;23.364;2023-07-13T12:17:46;17.10;;;10.77;;
71806;SDS011;59655;42.590;23.364;2023-07-13T12:20:22;21.40;;;11.02;;
71806;SDS011;59655;42.590;23.364;2023-07-13T12:22:50;20.67;;;10.80;;
71806;SDS011;59655;42.590;23.364;2023-07-13T12:25:17;24.58;;;10.93;;
71806;SDS011;59655;42.590;23.364;2023-07-13T12:27:50;15.65;;;10.80;;
71806;SDS011;59655;42.590;23.364;2023-07-13T12:30:27;21.45;;;10.70;;
71806;SDS011;59655;42.590;23.364;2023-07-13T12:33:07;17.83;;;10.30;;
71806;SDS011;59655;42.590;23.364;2023-07-13T12:35:42;23.05;;;10.75;;
71806;SDS011;59655;42.590;23.364;2023-07-13T12:38:12;17.55;;;9.82;;
71806;SDS011;59655;42.590;23.364;2023-07-13T12:40:38;20.20;;;11.20;;
71806;SDS011;59655;42.590;23.364;2023-07-13T12:45:31;17.13;;;11.25;;
71806;SDS011;59655;42.590;23.364;2023-07-13T12:47:58;21.58;;;11.23;;
71806;SDS011;59655;42.590;23.364;2023-07-13T12:50:39;19.05;;;11.05;;
71806;SDS011;59655;42.590;23.364;2023-07-13T12:53:12;23.35;;;10.07;;
71806;SDS011;59655;42.590;23.364;2023-07-13T12:55:43;17.75;;;10.20;;
71806;SDS011;59655;42.590;23.364;2023-07-13T12:58:36;18.67;;;10.30;;
71806;SDS011;59655;42.590;23.364;2023-07-13T13:01:01;18.80;;;11.05;;
71806;SDS011;59655;42.590;23.364;2023-07-13T13:06:21;22.20;;;10.35;;
71806;SDS011;59655;42.590;23.364;2023-07-13T13:08:51;19.42;;;10.63;;
71806;SDS011;59655;42.590;23.364;2023-07-13T13:11:21;17.23;;;11.38;;
71806;SDS011;59655;42.590;23.364;2023-07-13T13:16:17;18.95;;;10.57;;
71806;SDS011;59655;42.590;23.364;2023-07-13T13:19:20;21.17;;;11.10;;
71806;SDS011;59655;42.590;23.364;2023-07-13T13:21:54;21.35;;;11.27;;
71806;SDS011;59655;42.590;23.364;2023-07-13T13:24:22;20.88;;;10.15;;
71806;SDS011;59655;42.590;23.364;2023-07-13T13:26:50;21.52;;;10.43;;
71806;SDS011;59655;42.590;23.364;2023-07-13T13:29:21;19.85;;;11.50;;
71806;SDS011;59655;42.590;23.364;2023-07-13T13:31:52;19.70;;;10.88;;
71806;SDS011;59655;42.590;23.364;2023-07-13T13:36:44;25.67;;;11.55;;
71806;SDS011;59655;42.590;23.364;2023-07-13T13:39:32;18.88;;;12.15;;
71806;SDS011;59655;42.590;23.364;2023-07-13T13:41:59;22.08;;;11.07;;
71806;SDS011;59655;42.590;23.364;2023-07-13T13:44:25;24.85;;;11.45;;
71806;SDS011;59655;42.590;23.364;2023-07-13T13:46:51;24.27;;;12.70;;
71806;SDS011;59655;42.590;23.364;2023-07-13T13:49:19;20.75;;;10.20;;
71806;SDS011;59655;42.590;23.364;2023-07-13T13:51:47;19.40;;;11.98;;
71806;SDS011;59655;42.590;23.364;2023-07-13T13:54:14;19.15;;;10.98;;
71806;SDS011;59655;42.590;23.364;2023-07-13T13:56:44;19.98;;;11.35;;
71806;SDS011;59655;42.590;23.364;2023-07-13T13:59:12;21.08;;;11.63;;
71806;SDS011;59655;42.590;23.364;2023-07-13T14:01:39;21.67;;;10.75;;
71806;SDS011;59655;42.590;23.364;2023-07-13T14:04:08;21.08;;;10.65;;
71806;SDS011;59655;42.590;23.364;2023-07-13T14:09:07;22.47;;;10.27;;
71806;SDS011;59655;42.590;23.364;2023-07-13T14:11:36;21.27;;;11.07;;
71806;SDS011;59655;42.590;23.364;2023-07-13T14:14:01;23.48;;;11.10;;
71806;SDS011;59655;42.590;23.364;2023-07-13T14:16:30;22.90;;;10.60;;
71806;SDS011;59655;42.590;23.364;2023-07-13T14:18:57;27.48;;;11.20;;
71806;SDS011;59655;42.590;23.364;2023-07-13T14:21:25;19.83;;;11.25;;
71806;SDS011;59655;42.590;23.364;2023-07-13T14:23:52;20.73;;;11.05;;
71806;SDS011;59655;42.590;23.364;2023-07-13T14:26:24;21.73;;;10.93;;
71806;SDS011;59655;42.590;23.364;2023-07-13T14:28:53;30.38;;;11.25;;
71806;SDS011;59655;42.590;23.364;2023-07-13T14:31:21;19.63;;;10.88;;
71806;SDS011;59655;42.590;23.364;2023-07-13T14:33:49;21.85;;;11.07;;
71806;SDS011;59655;42.590;23.364;2023-07-13T14:36:28;21.83;;;12.15;;
71806;SDS011;59655;42.590;23.364;2023-07-13T14:38:59;22.08;;;10.70;;
71806;SDS011;59655;42.590;23.364;2023-07-13T14:41:27;20.30;;;11.05;;
71806;SDS011;59655;42.590;23.364;2023-07-13T14:43:52;20.55;;;11.18;;
71806;SDS011;59655;42.590;23.364;2023-07-13T14:46:29;22.98;;;10.75;;
71806;SDS011;59655;42.590;23.364;2023-07-13T14:51:32;23.50;;;11.48;;
71806;SDS011;59655;42.590;23.364;2023-07-13T14:56:29;22.60;;;11.13;;
71806;SDS011;59655;42.590;23.364;2023-07-13T14:58:55;26.15;;;11.73;;
71806;SDS011;59655;42.590;23.364;2023-07-13T15:01:20;26.15;;;11.65;;
71806;SDS011;59655;42.590;23.364;2023-07-13T15:03:47;22.00;;;10.80;;
71806;SDS011;59655;42.590;23.364;2023-07-13T15:06:15;22.08;;;10.88;;
71806;SDS011;59655;42.590;23.364;2023-07-13T15:08:42;23.92;;;11.27;;
71806;SDS011;59655;42.590;23.364;2023-07-13T15:11:08;20.98;;;9.77;;
71806;SDS011;59655;42.590;23.364;2023-07-13T15:13:36;19.75;;;9.82;;
71806;SDS011;59655;42.590;23.364;2023-07-13T15:16:03;21.40;;;11.05;;
71806;SDS011;59655;42.590;23.364;2023-07-13T15:18:30;24.25;;;10.02;;
71806;SDS011;59655;42.590;23.364;2023-07-13T15:20:55;23.98;;;10.63;;
71806;SDS011;59655;42.590;23.364;2023-07-13T15:23:25;17.92;;;10.45;;
71806;SDS011;59655;42.590;23.364;2023-07-13T15:25:51;21.85;;;9.57;;
71806;SDS011;59655;42.590;23.364;2023-07-13T15:28:17;19.85;;;9.32;;
71806;SDS011;59655;42.590;23.364;2023-07-13T15:30:44;21.92;;;10.65;;
71806;SDS011;59655;42.590;23.364;2023-07-13T15:33:12;19.60;;;10.90;;
71806;SDS011;59655;42.590;23.364;2023-07-13T15:35:39;23.02;;;10.70;;
71806;SDS011;59655;42.590;23.364;2023-07-13T15:38:25;21.40;;;10.38;;